Time;durP1;ratioP1;P1;durP2;ratioP2;P2;SDS_P1;SDS_P2;PMS_P1;PMS_P2;Temp;Humidity;BMP_temperature;BMP_pressure;BME280_temperature;BME280_humidity;BME280_pressure;Samples;Min_cycle;Max_cycle;Signal;HPM_P1;HPM_P2
2023/03/28 00:01:09;;;;;;;1.88;1.00;;;;;7.40;102449.00;;;;5006410;28;20259;-80
2023/03/28 00:03:39;;;;;;;3.80;1.15;;;;;7.40;102447.00;;;;5008493;28;20209;-80
2023/03/28 00:06:09;;;;;;;3.38;1.13;;;;;7.40;102451.00;;;;5004366;28;20197;-80
2023/03/28 00:08:39;;;;;;;3.03;1.02;;;;;7.30;102454.00;;;;5008248;28;20213;-80
2023/03/28 00:11:09;;;;;;;0.90;0.60;;;;;7.30;102458.00;;;;5004084;28;20220;-80
2023/03/28 00:13:38;;;;;;;3.30;1.35;;;;;7.30;102451.00;;;;5004201;28;20216;-80
2023/03/28 00:16:08;;;;;;;3.30;1.40;;;;;7.30;102456.00;;;;5008666;28;20201;-80
2023/03/28 00:18:37;;;;;;;3.58;1.10;;;;;7.30;102453.00;;;;5006619;28;20195;-80
2023/03/28 00:21:08;;;;;;;2.60;1.10;;;;;7.30;102455.00;;;;5006555;28;20839;-80
2023/03/28 00:23:36;;;;;;;2.30;0.80;;;;;7.20;102457.00;;;;5007348;28;20189;-80
2023/03/28 00:26:07;;;;;;;2.67;1.00;;;;;7.20;102461.00;;;;5007350;28;20205;-80
2023/03/28 00:28:36;;;;;;;2.17;0.90;;;;;7.20;102454.00;;;;5006046;28;20197;-80
2023/03/28 00:31:07;;;;;;;1.92;1.02;;;;;7.20;102456.00;;;;5008732;28;20284;-80
2023/03/28 00:33:34;;;;;;;2.05;0.95;;;;;7.20;102458.00;;;;5006791;28;20577;-80
2023/03/28 00:36:02;;;;;;;3.38;1.20;;;;;7.20;102457.00;;;;5006378;28;20216;-80
2023/03/28 00:38:30;;;;;;;3.35;0.90;;;;;7.20;102456.00;;;;5006864;28;20206;-80
2023/03/28 00:40:58;;;;;;;1.58;0.90;;;;;7.10;102456.00;;;;5008093;28;20235;-80
2023/03/28 00:43:40;;;;;;;2.38;1.08;;;;;7.00;102454.00;;;;5007435;28;20204;-80
2023/03/28 00:46:15;;;;;;;2.42;0.50;;;;;7.10;102459.00;;;;5004994;28;20199;-80
2023/03/28 00:48:49;;;;;;;3.10;1.30;;;;;7.10;102458.00;;;;5007833;28;20263;-80
2023/03/28 00:51:19;;;;;;;1.52;1.10;;;;;7.10;102462.00;;;;4998217;28;20197;-80
2023/03/28 00:53:48;;;;;;;3.15;1.20;;;;;7.10;102457.00;;;;5006810;28;20665;-80
2023/03/28 00:56:18;;;;;;;1.58;0.82;;;;;7.00;102453.00;;;;5003333;28;20205;-80
2023/03/28 00:58:47;;;;;;;2.67;0.88;;;;;7.00;102451.00;;;;5006410;28;20202;-80
2023/03/28 01:01:18;;;;;;;1.52;0.95;;;;;7.00;102453.00;;;;5006630;28;20308;-80
2023/03/28 01:03:51;;;;;;;1.88;0.77;;;;;7.00;102467.00;;;;5001211;28;20207;-80
2023/03/28 01:06:21;;;;;;;1.73;0.75;;;;;7.00;102453.00;;;;5002488;28;20301;-79
2023/03/28 01:08:49;;;;;;;2.88;0.88;;;;;7.00;102452.00;;;;4999282;28;20197;-79
2023/03/28 01:11:18;;;;;;;3.00;0.90;;;;;7.00;102455.00;;;;5007673;28;20197;-78
2023/03/28 01:13:49;;;;;;;2.08;1.20;;;;;6.90;102447.00;;;;5005766;28;20208;-79
2023/03/28 01:16:20;;;;;;;2.90;0.93;;;;;7.00;102451.00;;;;5003229;28;20201;-79
2023/03/28 01:18:50;;;;;;;2.38;0.88;;;;;7.00;102449.00;;;;5005779;28;20206;-79
2023/03/28 01:21:47;;;;;;;1.65;0.80;;;;;6.90;102446.00;;;;5002174;28;20635;-79
2023/03/28 01:24:47;;;;;;;5.25;1.20;;;;;6.80;102441.00;;;;5004611;28;20742;-79
2023/03/28 01:27:19;;;;;;;1.50;0.80;;;;;6.90;102437.00;;;;4999411;28;20200;-78
2023/03/28 01:30:22;;;;;;;3.08;0.70;;;;;6.80;102442.00;;;;5006161;28;20569;-79
2023/03/28 01:33:20;;;;;;;2.55;1.17;;;;;6.80;102437.00;;;;5006858;28;20197;-78
2023/03/28 01:36:15;;;;;;;2.38;0.73;;;;;6.80;102428.00;;;;4999167;28;20205;-79
2023/03/28 01:38:50;;;;;;;1.85;0.50;;;;;6.80;102439.00;;;;4989676;28;20201;-79
2023/03/28 01:41:24;;;;;;;3.33;0.55;;;;;6.80;102427.00;;;;5007241;28;20235;-79
2023/03/28 01:43:58;;;;;;;3.65;1.25;;;;;6.80;102431.00;;;;5007729;28;20197;-79
2023/03/28 01:46:30;;;;;;;2.97;0.93;;;;;6.80;102429.00;;;;5010824;28;20200;-79
2023/03/28 01:49:04;;;;;;;1.27;0.73;;;;;6.80;102430.00;;;;5010599;28;20208;-79
2023/03/28 01:51:45;;;;;;;2.65;0.90;;;;;6.80;102421.00;;;;5010504;28;20208;-79
2023/03/28 01:54:23;;;;;;;1.92;0.85;;;;;6.80;102417.00;;;;5009460;28;20200;-79
2023/03/28 01:56:57;;;;;;;1.90;0.88;;;;;6.80;102419.00;;;;5002476;28;20671;-79
2023/03/28 01:59:29;;;;;;;1.05;0.50;;;;;6.80;102414.00;;;;5004826;28;20908;-79
2023/03/28 02:02:01;;;;;;;1.63;0.55;;;;;6.80;102417.00;;;;5010265;28;20224;-79
2023/03/28 02:04:32;;;;;;;1.65;0.73;;;;;6.80;102416.00;;;;5009879;28;20201;-79
2023/03/28 02:07:00;;;;;;;2.42;0.80;;;;;6.80;102421.00;;;;5008463;28;20360;-79
2023/03/28 02:09:32;;;;;;;0.95;0.55;;;;;6.80;102421.00;;;;5010004;28;20226;-79
2023/03/28 02:12:04;;;;;;;2.38;1.23;;;;;6.80;102421.00;;;;5006580;28;20213;-79
2023/03/28 02:14:37;;;;;;;1.58;0.82;;;;;6.80;102420.00;;;;5011240;28;20208;-79
2023/03/28 02:17:14;;;;;;;3.22;1.08;;;;;6.80;102413.00;;;;5010512;28;20224;-79
2023/03/28 02:19:45;;;;;;;2.78;1.00;;;;;6.80;102414.00;;;;5009902;28;20212;-79
2023/03/28 02:22:19;;;;;;;2.08;0.70;;;;;6.80;102413.00;;;;5009248;28;20428;-79
2023/03/28 02:24:50;;;;;;;1.77;0.77;;;;;6.80;102412.00;;;;5009032;28;20199;-79
2023/03/28 02:27:19;;;;;;;2.20;1.05;;;;;6.80;102417.00;;;;5017552;28;20229;-79
2023/03/28 02:29:48;;;;;;;1.58;0.80;;;;;6.70;102416.00;;;;5001119;28;20195;-79
2023/03/28 02:32:15;;;;;;;2.55;1.00;;;;;6.70;102418.00;;;;5016722;28;20296;-79
2023/03/28 02:34:47;;;;;;;2.55;0.90;;;;;6.70;102413.00;;;;5010723;28;20216;-79
2023/03/28 02:37:25;;;;;;;3.75;0.90;;;;;6.70;102411.00;;;;5009207;28;20204;-79
2023/03/28 02:40:12;;;;;;;2.90;0.75;;;;;6.60;102412.00;;;;5011020;28;20197;-79
2023/03/28 02:43:06;;;;;;;1.30;0.80;;;;;6.60;102426.00;;;;5010302;28;20647;-79
2023/03/28 02:45:56;;;;;;;3.80;0.95;;;;;6.60;102420.00;;;;4965601;28;20216;-79
2023/03/28 02:48:36;;;;;;;2.08;1.08;;;;;6.60;102420.00;;;;4991974;28;20198;-79
2023/03/28 02:51:13;;;;;;;1.67;0.80;;;;;6.60;102421.00;;;;5004752;28;20237;-80
2023/03/28 02:53:49;;;;;;;2.47;1.05;;;;;6.60;102431.00;;;;5009153;28;20197;-79
2023/03/28 02:56:25;;;;;;;2.15;0.85;;;;;6.60;102429.00;;;;5006632;28;20208;-79
2023/03/28 02:58:56;;;;;;;3.97;1.30;;;;;6.60;102415.00;;;;5002045;28;20241;-79
2023/03/28 03:01:28;;;;;;;1.10;0.88;;;;;6.60;102417.00;;;;5004603;28;20244;-79
2023/03/28 03:03:55;;;;;;;1.40;0.70;;;;;6.60;102417.00;;;;5009312;28;20312;-78
2023/03/28 03:06:23;;;;;;;2.47;1.00;;;;;6.60;102422.00;;;;5009541;28;20241;-79
2023/03/28 03:08:50;;;;;;;3.10;1.08;;;;;6.60;102418.00;;;;5007012;28;20205;-79
2023/03/28 03:11:20;;;;;;;4.07;1.27;;;;;6.60;102418.00;;;;5009574;28;20200;-79
2023/03/28 03:13:47;;;;;;;4.63;1.55;;;;;6.60;102411.00;;;;5007308;28;20197;-79
2023/03/28 03:16:14;;;;;;;2.10;1.20;;;;;6.60;102405.00;;;;5004964;28;20201;-79
2023/03/28 03:18:42;;;;;;;5.38;1.27;;;;;6.60;102414.00;;;;4999834;28;20804;-79
2023/03/28 03:21:09;;;;;;;2.33;1.35;;;;;6.60;102410.00;;;;5009748;28;20252;-79
2023/03/28 03:23:36;;;;;;;2.58;1.33;;;;;6.60;102406.00;;;;5008476;28;20682;-79
2023/03/28 03:26:04;;;;;;;3.55;1.33;;;;;6.50;102416.00;;;;5009618;28;20201;-78
2023/03/28 03:28:32;;;;;;;4.68;1.63;;;;;6.50;102409.00;;;;5008958;28;20197;-79
2023/03/28 03:31:00;;;;;;;5.25;1.80;;;;;6.50;102411.00;;;;5009478;28;20197;-79
2023/03/28 03:33:27;;;;;;;4.22;1.67;;;;;6.50;102417.00;;;;5009347;28;20205;-78
2023/03/28 03:35:54;;;;;;;3.08;1.88;;;;;6.50;102415.00;;;;4999516;28;20209;-79
2023/03/28 03:38:22;;;;;;;1.45;1.08;;;;;6.50;102409.00;;;;5002481;28;20280;-78
2023/03/28 03:40:49;;;;;;;3.45;1.40;;;;;6.50;102409.00;;;;5007401;28;20663;-78
2023/03/28 03:43:16;;;;;;;3.05;1.67;;;;;6.50;102415.00;;;;5010299;28;20224;-79
2023/03/28 03:45:45;;;;;;;2.28;1.45;;;;;6.40;102407.00;;;;5009839;28;20223;-79
2023/03/28 03:48:14;;;;;;;4.82;1.25;;;;;6.50;102411.00;;;;5010131;28;20306;-79
2023/03/28 03:50:41;;;;;;;2.20;1.40;;;;;6.50;102395.00;;;;5009536;28;20232;-79
2023/03/28 03:53:08;;;;;;;4.65;1.77;;;;;6.40;102409.00;;;;4998021;28;20216;-79
2023/03/28 03:55:38;;;;;;;5.47;1.63;;;;;6.40;102410.00;;;;5008638;28;20193;-79
2023/03/28 03:58:06;;;;;;;2.90;1.40;;;;;6.40;102408.00;;;;5005962;28;20197;-79
2023/03/28 04:00:33;;;;;;;3.42;1.65;;;;;6.40;102401.00;;;;5008047;28;20248;-78
2023/03/28 04:03:02;;;;;;;2.78;1.38;;;;;6.40;102409.00;;;;5008637;28;20216;-78
2023/03/28 04:05:29;;;;;;;4.07;1.55;;;;;6.40;102405.00;;;;5005195;28;20204;-79
2023/03/28 04:07:58;;;;;;;2.97;1.48;;;;;6.40;102406.00;;;;5007666;28;20200;-78
2023/03/28 04:10:25;;;;;;;4.10;1.40;;;;;6.40;102415.00;;;;4999410;28;20225;-79
2023/03/28 04:12:52;;;;;;;3.47;1.77;;;;;6.40;102410.00;;;;5008120;28;20259;-79
2023/03/28 04:15:20;;;;;;;2.17;1.27;;;;;6.40;102412.00;;;;5006933;28;20204;-79
2023/03/28 04:17:49;;;;;;;2.55;1.27;;;;;6.40;102409.00;;;;5008703;28;20197;-79
2023/03/28 04:20:18;;;;;;;4.03;1.30;;;;;6.40;102408.00;;;;5008240;28;20247;-78
2023/03/28 04:22:47;;;;;;;2.13;1.35;;;;;6.40;102405.00;;;;5007509;28;20666;-79
2023/03/28 04:25:16;;;;;;;5.18;1.83;;;;;6.30;102405.00;;;;5005025;28;20199;-78
2023/03/28 04:27:47;;;;;;;3.83;1.50;;;;;6.30;102402.00;;;;5003166;28;20220;-79
2023/03/28 04:30:16;;;;;;;3.53;1.65;;;;;6.30;102399.00;;;;5008387;28;20204;-79
2023/03/28 04:32:48;;;;;;;3.22;1.70;;;;;6.30;102401.00;;;;5008419;28;20215;-78
2023/03/28 04:35:16;;;;;;;3.92;1.60;;;;;6.30;102404.00;;;;5006147;28;20629;-78
2023/03/28 04:37:44;;;;;;;2.90;1.42;;;;;6.30;102396.00;;;;4995747;28;20201;-78
2023/03/28 04:40:14;;;;;;;6.80;2.22;;;;;6.30;102395.00;;;;5004224;28;20212;-78
2023/03/28 04:42:42;;;;;;;4.50;1.58;;;;;6.30;102398.00;;;;5007245;28;20316;-78
2023/03/28 04:45:10;;;;;;;2.58;1.30;;;;;6.30;102395.00;;;;5005531;28;20192;-78
2023/03/28 04:47:38;;;;;;;3.13;1.48;;;;;6.30;102398.00;;;;5007681;28;20205;-78
2023/03/28 04:50:08;;;;;;;4.22;1.52;;;;;6.30;102389.00;;;;5005621;28;20201;-78
2023/03/28 04:52:36;;;;;;;4.10;1.95;;;;;6.30;102393.00;;;;5008125;28;20204;-78
2023/03/28 04:55:05;;;;;;;3.95;1.45;;;;;6.30;102397.00;;;;5006618;28;20598;-78
2023/03/28 04:57:32;;;;;;;1.67;1.33;;;;;6.30;102395.00;;;;5001370;28;20205;-77
2023/03/28 04:59:59;;;;;;;2.60;1.58;;;;;6.30;102397.00;;;;5004928;28;20599;-78
2023/03/28 05:02:27;;;;;;;2.40;1.25;;;;;6.20;102397.00;;;;5000908;28;20232;-78
2023/03/28 05:04:54;;;;;;;2.75;1.30;;;;;6.20;102395.00;;;;5003189;28;20208;-78
2023/03/28 05:07:21;;;;;;;2.78;1.42;;;;;6.20;102401.00;;;;5007079;28;20237;-78
2023/03/28 05:09:50;;;;;;;3.40;1.17;;;;;6.20;102405.00;;;;5005606;28;20212;-79
2023/03/28 05:12:17;;;;;;;3.47;1.33;;;;;6.20;102405.00;;;;5006292;28;20655;-79
2023/03/28 05:14:45;;;;;;;3.63;1.40;;;;;6.20;102409.00;;;;5006533;28;20608;-80
2023/03/28 05:17:12;;;;;;;3.58;1.42;;;;;6.20;102412.00;;;;5004777;28;20196;-79
2023/03/28 05:19:39;;;;;;;3.75;1.70;;;;;6.20;102418.00;;;;5009333;28;20205;-82
2023/03/28 05:22:07;;;;;;;2.75;1.40;;;;;6.20;102413.00;;;;5009529;28;20223;-80
2023/03/28 05:24:34;;;;;;;2.67;1.50;;;;;6.30;102415.00;;;;5006338;28;20201;-81
2023/03/28 05:27:03;;;;;;;4.15;1.58;;;;;6.30;102417.00;;;;5006371;28;20205;-81
2023/03/28 05:29:30;;;;;;;4.38;1.50;;;;;6.30;102416.00;;;;5008508;28;20196;-81
2023/03/28 05:31:57;;;;;;;3.28;1.83;;;;;6.30;102424.00;;;;5009644;28;20196;-78
2023/03/28 05:34:28;;;;;;;3.70;1.70;;;;;6.30;102422.00;;;;5008028;28;20204;-80
2023/03/28 05:36:56;;;;;;;2.95;1.65;;;;;6.40;102431.00;;;;5013358;28;20207;-80
2023/03/28 05:39:23;;;;;;;4.32;1.88;;;;;6.40;102420.00;;;;5011673;28;20201;-80
2023/03/28 05:41:50;;;;;;;2.42;1.70;;;;;6.40;102430.00;;;;5001714;28;20201;-81
2023/03/28 05:44:19;;;;;;;2.63;1.70;;;;;6.40;102434.00;;;;5011194;28;20201;-81
2023/03/28 05:46:46;;;;;;;2.83;1.65;;;;;6.50;102424.00;;;;5009983;28;20745;-81
2023/03/28 05:49:14;;;;;;;2.15;1.63;;;;;6.50;102431.00;;;;5008111;28;20225;-81
2023/03/28 05:51:41;;;;;;;3.80;1.58;;;;;6.50;102433.00;;;;5012094;28;20197;-80
2023/03/28 05:54:09;;;;;;;2.42;1.67;;;;;6.60;102433.00;;;;5007396;28;20208;-81
2023/03/28 05:56:36;;;;;;;2.95;1.90;;;;;6.60;102440.00;;;;5010224;28;20641;-80
2023/03/28 05:59:04;;;;;;;4.53;2.30;;;;;6.60;102435.00;;;;5008951;28;20247;-81
2023/03/28 06:01:33;;;;;;;3.50;2.40;;;;;6.60;102426.00;;;;5010564;28;20204;-80
2023/03/28 06:04:01;;;;;;;3.78;2.17;;;;;6.70;102428.00;;;;5010318;28;20286;-83
2023/03/28 06:06:28;;;;;;;4.32;2.60;;;;;6.80;102433.00;;;;5010511;28;20216;-80
2023/03/28 06:08:55;;;;;;;4.25;3.05;;;;;6.80;102433.00;;;;5009518;28;20295;-80
2023/03/28 06:11:23;;;;;;;4.32;3.10;;;;;6.80;102430.00;;;;5010466;28;20213;-81
2023/03/28 06:13:50;;;;;;;4.95;3.60;;;;;6.90;102427.00;;;;5010424;28;20205;-81
2023/03/28 06:16:17;;;;;;;5.68;4.25;;;;;6.90;102430.00;;;;5010698;28;20196;-81
2023/03/28 06:18:46;;;;;;;6.93;5.00;;;;;7.00;102429.00;;;;5011564;28;20201;-80
2023/03/28 06:21:13;;;;;;;8.10;5.18;;;;;7.00;102429.00;;;;5009864;28;20209;-81
2023/03/28 06:23:40;;;;;;;6.65;4.85;;;;;7.10;102430.00;;;;4993554;28;20236;-81
2023/03/28 06:26:08;;;;;;;5.68;4.35;;;;;7.20;102432.00;;;;4996655;28;20197;-78
2023/03/28 06:28:35;;;;;;;8.95;4.63;;;;;7.20;102423.00;;;;4994351;28;20205;-78
2023/03/28 06:31:02;;;;;;;8.50;4.65;;;;;7.30;102434.00;;;;5011306;28;20207;-78
2023/03/28 06:33:30;;;;;;;6.47;3.85;;;;;7.40;102428.00;;;;5009855;28;20201;-78
2023/03/28 06:35:58;;;;;;;8.07;3.65;;;;;7.40;102428.00;;;;5010131;28;20283;-78
2023/03/28 06:38:26;;;;;;;5.35;3.00;;;;;7.50;102436.00;;;;5010811;28;20205;-78
2023/03/28 06:40:53;;;;;;;3.30;2.72;;;;;7.60;102434.00;;;;5011190;28;20205;-78
2023/03/28 06:43:20;;;;;;;5.43;2.58;;;;;7.70;102446.00;;;;5007709;28;20228;-78
2023/03/28 06:45:47;;;;;;;4.60;2.78;;;;;7.80;102441.00;;;;5008787;28;20201;-78
2023/03/28 06:48:15;;;;;;;4.30;3.13;;;;;7.90;102444.00;;;;5009568;28;20201;-78
2023/03/28 06:50:48;;;;;;;4.43;3.05;;;;;8.00;102444.00;;;;5010846;28;20217;-79
2023/03/28 06:53:17;;;;;;;5.65;2.97;;;;;8.10;102443.00;;;;5010529;28;20204;-78
2023/03/28 06:55:45;;;;;;;5.38;2.47;;;;;8.20;102439.00;;;;5009593;28;20308;-78
2023/03/28 06:58:12;;;;;;;3.22;2.28;;;;;8.20;102440.00;;;;5001980;28;20213;-79
2023/03/28 07:00:40;;;;;;;4.78;2.38;;;;;8.30;102438.00;;;;5000030;28;20231;-78
2023/03/28 07:03:07;;;;;;;6.60;2.10;;;;;8.40;102440.00;;;;5008603;28;20316;-78
2023/03/28 07:05:38;;;;;;;3.88;2.08;;;;;8.40;102447.00;;;;5010425;28;20204;-78
2023/03/28 07:08:06;;;;;;;5.57;2.10;;;;;8.40;102449.00;;;;5005648;28;20209;-78
2023/03/28 07:10:35;;;;;;;3.85;2.45;;;;;8.50;102448.00;;;;5006426;28;20288;-78
2023/03/28 07:13:02;;;;;;;5.13;2.13;;;;;8.60;102450.00;;;;5010046;28;20197;-78
2023/03/28 07:15:29;;;;;;;6.28;2.50;;;;;8.60;102452.00;;;;5009172;28;20224;-81
2023/03/28 07:17:57;;;;;;;4.25;2.30;;;;;8.70;102451.00;;;;5004130;28;20212;-81
2023/03/28 07:20:25;;;;;;;5.93;2.47;;;;;8.70;102449.00;;;;5009857;28;20215;-78
2023/03/28 07:22:53;;;;;;;3.72;2.30;;;;;8.80;102451.00;;;;5009819;28;20236;-79
2023/03/28 07:25:20;;;;;;;10.82;2.72;;;;;8.90;102463.00;;;;5006846;28;20201;-80
2023/03/28 07:27:49;;;;;;;3.17;2.40;;;;;8.90;102455.00;;;;5005998;28;20208;-80
2023/03/28 07:30:16;;;;;;;3.50;2.42;;;;;9.00;102457.00;;;;5005388;28;20212;-80
2023/03/28 07:32:44;;;;;;;4.55;2.20;;;;;9.10;102452.00;;;;5007171;28;20200;-80
2023/03/28 07:35:11;;;;;;;3.38;2.38;;;;;9.10;102451.00;;;;4990466;28;20251;-80
2023/03/28 07:37:38;;;;;;;3.72;2.30;;;;;9.20;102460.00;;;;5005659;28;20189;-79
2023/03/28 07:40:07;;;;;;;5.22;2.53;;;;;9.30;102454.00;;;;5010154;28;20220;-80
2023/03/28 07:42:35;;;;;;;2.58;2.25;;;;;9.40;102457.00;;;;5008271;28;20209;-79
2023/03/28 07:45:04;;;;;;;4.35;2.70;;;;;9.40;102448.00;;;;5005264;28;20204;-80
2023/03/28 07:47:31;;;;;;;4.80;2.50;;;;;9.50;102456.00;;;;5005674;28;20208;-80
2023/03/28 07:49:58;;;;;;;5.10;2.80;;;;;9.60;102465.00;;;;5008338;28;21134;-80
2023/03/28 07:52:25;;;;;;;6.20;2.83;;;;;9.70;102466.00;;;;5009463;28;20201;-80
2023/03/28 07:54:53;;;;;;;4.82;2.70;;;;;9.80;102463.00;;;;5009102;28;20224;-80
2023/03/28 07:57:21;;;;;;;3.50;2.70;;;;;9.80;102451.00;;;;5009350;28;20189;-80
2023/03/28 07:59:49;;;;;;;6.75;2.75;;;;;9.90;102449.00;;;;5008199;28;20228;-81
2023/03/28 08:02:17;;;;;;;5.50;2.80;;;;;10.00;102456.00;;;;5005896;28;20871;-81
2023/03/28 08:04:45;;;;;;;4.75;3.08;;;;;10.10;102465.00;;;;5006608;28;20232;-80
2023/03/28 08:07:14;;;;;;;5.20;3.13;;;;;10.30;102457.00;;;;5004376;28;20209;-80
2023/03/28 08:09:41;;;;;;;7.43;2.92;;;;;10.40;102454.00;;;;4990084;28;20304;-80
2023/03/28 08:12:09;;;;;;;5.55;3.03;;;;;10.50;102458.00;;;;4993394;28;20204;-81
2023/03/28 08:14:36;;;;;;;4.63;2.90;;;;;10.70;102457.00;;;;5007767;28;20296;-80
2023/03/28 08:17:04;;;;;;;6.25;2.75;;;;;10.80;102459.00;;;;5005926;28;20200;-80
2023/03/28 08:19:33;;;;;;;6.03;3.13;;;;;10.90;102449.00;;;;5009380;28;20201;-80
2023/03/28 08:22:01;;;;;;;9.32;3.67;;;;;11.00;102451.00;;;;5008304;28;20193;-79
2023/03/28 08:24:28;;;;;;;5.93;3.13;;;;;11.10;102451.00;;;;5008008;28;20286;-80
2023/03/28 08:26:55;;;;;;;9.77;3.25;;;;;11.20;102455.00;;;;5009075;28;20201;-79
2023/03/28 08:29:23;;;;;;;5.65;3.60;;;;;11.30;102457.00;;;;5009047;28;20205;-80
2023/03/28 08:31:50;;;;;;;4.90;3.67;;;;;11.40;102452.00;;;;5008672;28;20213;-80
2023/03/28 08:34:17;;;;;;;6.82;3.33;;;;;11.50;102455.00;;;;5007336;28;20974;-80
2023/03/28 08:36:47;;;;;;;7.45;2.75;;;;;11.60;102454.00;;;;5008766;28;20197;-80
2023/03/28 08:39:15;;;;;;;6.30;3.42;;;;;11.70;102451.00;;;;5009164;28;20227;-80
2023/03/28 08:42:04;;;;;;;4.45;3.00;;;;;11.70;102453.00;;;;4999340;28;20209;-80
2023/03/28 08:44:54;;;;;;;8.60;3.60;;;;;11.80;102452.00;;;;4989311;28;20224;-80
2023/03/28 08:47:29;;;;;;;9.60;3.70;;;;;12.00;102438.00;;;;5006080;28;21034;-81
2023/03/28 08:50:01;;;;;;;4.78;2.92;;;;;12.10;102448.00;;;;5008624;28;20200;-80
2023/03/28 08:52:31;;;;;;;3.13;2.67;;;;;12.20;102443.00;;;;5008168;28;20686;-80
2023/03/28 08:55:03;;;;;;;5.63;2.80;;;;;12.40;102451.00;;;;5007949;28;20201;-80
2023/03/28 08:57:33;;;;;;;8.93;3.60;;;;;12.50;102453.00;;;;5005644;28;20228;-80
2023/03/28 09:00:11;;;;;;;4.30;2.40;;;;;12.60;102442.00;;;;5005158;28;20229;-80
2023/03/28 09:02:38;;;;;;;4.32;2.72;;;;;12.70;102448.00;;;;5006879;28;20196;-80
2023/03/28 09:05:13;;;;;;;5.65;2.50;;;;;12.80;102444.00;;;;5007134;28;20221;-80
2023/03/28 09:07:53;;;;;;;6.45;2.65;;;;;12.90;102445.00;;;;5008535;28;20193;-81
2023/03/28 09:10:27;;;;;;;3.55;2.03;;;;;13.00;102440.00;;;;5006954;28;20288;-81
2023/03/28 09:13:06;;;;;;;7.35;2.05;;;;;13.10;102439.00;;;;5008357;28;20192;-80
2023/03/28 09:15:47;;;;;;;7.05;2.00;;;;;13.20;102444.00;;;;5000944;28;20205;-80
2023/03/28 09:18:42;;;;;;;3.08;1.75;;;;;13.30;102436.00;;;;4988629;28;20212;-80
2023/03/28 09:21:18;;;;;;;4.15;1.50;;;;;13.40;102437.00;;;;4993881;28;20233;-80
2023/03/28 09:24:01;;;;;;;7.05;1.63;;;;;13.40;102441.00;;;;4996118;28;20221;-81
2023/03/28 09:26:34;;;;;;;2.65;1.73;;;;;13.50;102435.00;;;;4988602;28;20690;-81
2023/03/28 09:29:05;;;;;;;4.93;2.05;;;;;13.50;102442.00;;;;4988501;28;20193;-81
2023/03/28 09:31:37;;;;;;;4.63;1.75;;;;;13.60;102444.00;;;;5002426;28;20213;-81
2023/03/28 09:34:06;;;;;;;3.22;1.50;;;;;13.60;102432.00;;;;5003781;28;20200;-83
2023/03/28 09:36:42;;;;;;;3.13;1.38;;;;;13.70;102443.00;;;;5008206;28;20244;-83
2023/03/28 09:39:18;;;;;;;6.68;1.38;;;;;13.70;102432.00;;;;5003780;28;20256;-82
2023/03/28 09:41:54;;;;;;;6.88;1.85;;;;;13.80;102431.00;;;;5008369;28;20192;-80
2023/03/28 09:44:30;;;;;;;4.25;2.08;;;;;13.80;102431.00;;;;5008038;28;20221;-80
2023/03/28 09:47:00;;;;;;;6.25;1.90;;;;;13.90;102430.00;;;;5007117;28;20200;-81
2023/03/28 09:49:27;;;;;;;4.80;2.05;;;;;14.00;102423.00;;;;5001950;28;20201;-81
2023/03/28 09:51:56;;;;;;;4.10;1.80;;;;;14.10;102424.00;;;;4991608;28;20201;-81
2023/03/28 09:54:29;;;;;;;5.10;1.67;;;;;14.10;102423.00;;;;5005904;28;20796;-81
2023/03/28 09:57:01;;;;;;;4.93;1.73;;;;;14.20;102415.00;;;;5004698;28;20225;-81
2023/03/28 09:59:30;;;;;;;3.63;1.35;;;;;14.20;102418.00;;;;5002344;28;20240;-81
2023/03/28 10:01:59;;;;;;;6.13;1.45;;;;;14.30;102411.00;;;;5007691;28;20200;-81
2023/03/28 10:04:35;;;;;;;4.43;1.25;;;;;14.20;102396.00;;;;5006778;28;20228;-82
2023/03/28 10:07:33;;;;;;;2.88;1.60;;;;;14.20;102388.00;;;;5006723;28;20667;-81
2023/03/28 10:10:19;;;;;;;3.22;1.27;;;;;14.30;102390.00;;;;5011553;28;21109;-82
2023/03/28 10:12:48;;;;;;;6.28;1.48;;;;;14.40;102392.00;;;;5011007;28;20236;-81
2023/03/28 10:15:39;;;;;;;3.13;1.40;;;;;14.30;102382.00;;;;5010928;28;20204;-82
2023/03/28 10:18:06;;;;;;;3.60;1.30;;;;;14.50;102377.00;;;;5011782;28;20193;-81
2023/03/28 10:20:37;;;;;;;5.90;1.40;;;;;14.50;102384.00;;;;5010600;28;20213;-82
2023/03/28 10:23:05;;;;;;;1.88;1.10;;;;;14.60;102372.00;;;;5009903;28;20197;-82
2023/03/28 10:25:43;;;;;;;2.75;0.98;;;;;14.50;102365.00;;;;5010493;28;20295;-82
2023/03/28 10:28:17;;;;;;;1.92;0.70;;;;;14.50;102370.00;;;;5011402;28;20197;-82
2023/03/28 10:30:52;;;;;;;1.00;0.60;;;;;14.50;102360.00;;;;5010254;28;20192;-82
2023/03/28 10:33:30;;;;;;;1.25;1.00;;;;;14.50;102364.00;;;;5010776;28;20200;-82
2023/03/28 10:36:00;;;;;;;3.50;1.00;;;;;14.50;102370.00;;;;4995047;28;20216;-82
2023/03/28 10:38:32;;;;;;;2.17;0.70;;;;;14.50;102365.00;;;;5010790;28;20615;-80
2023/03/28 10:41:03;;;;;;;1.40;0.93;;;;;14.50;102351.00;;;;5005629;28;20212;-81
2023/03/28 10:43:37;;;;;;;3.55;0.63;;;;;14.40;102345.00;;;;5010567;28;20618;-81
2023/03/28 10:46:11;;;;;;;4.97;0.90;;;;;14.40;102343.00;;;;5011217;28;20193;-83
2023/03/28 10:48:40;;;;;;;1.75;0.63;;;;;14.40;102335.00;;;;5009980;28;20200;-82
2023/03/28 10:51:15;;;;;;;2.08;0.55;;;;;14.40;102340.00;;;;5010242;28;20197;-81
2023/03/28 10:54:18;;;;;;;2.22;0.63;;;;;14.30;102341.00;;;;5011299;28;20274;-82
2023/03/28 10:56:52;;;;;;;1.98;0.70;;;;;14.40;102332.00;;;;5009545;28;20197;-82
2023/03/28 10:59:41;;;;;;;2.83;0.73;;;;;14.40;102335.00;;;;5008567;28;20225;-82
2023/03/28 11:02:31;;;;;;;1.95;0.95;;;;;14.50;102332.00;;;;5008939;28;20582;-82
2023/03/28 11:05:03;;;;;;;4.18;1.20;;;;;14.60;102332.00;;;;5010283;28;20902;-82
2023/03/28 11:07:36;;;;;;;2.28;1.02;;;;;14.60;102318.00;;;;5008786;28;20208;-82
2023/03/28 11:10:11;;;;;;;4.03;1.40;;;;;14.60;102315.00;;;;5010000;28;20205;-82
2023/03/28 11:12:55;;;;;;;3.10;1.15;;;;;14.70;102310.00;;;;5009713;28;20205;-82
2023/03/28 11:15:29;;;;;;;4.95;1.23;;;;;14.90;102319.00;;;;4996069;28;20209;-82
2023/03/28 11:18:06;;;;;;;2.83;1.40;;;;;15.00;102303.00;;;;4992230;28;20204;-81
2023/03/28 11:20:43;;;;;;;3.30;1.77;;;;;15.10;102302.00;;;;5009721;28;20196;-81
2023/03/28 11:23:37;;;;;;;4.18;1.50;;;;;15.10;102296.00;;;;5010326;28;20189;-82
2023/03/28 11:26:09;;;;;;;3.47;1.20;;;;;15.30;102292.00;;;;5009727;28;20697;-82
2023/03/28 11:28:58;;;;;;;2.20;1.48;;;;;15.40;102288.00;;;;5009319;28;20291;-82
2023/03/28 11:31:32;;;;;;;4.10;1.33;;;;;15.50;102283.00;;;;5003340;28;20217;-82
2023/03/28 11:34:04;;;;;;;3.85;1.33;;;;;15.60;102287.00;;;;5005008;28;20201;-83
2023/03/28 11:36:36;;;;;;;2.53;1.35;;;;;15.60;102284.00;;;;5004841;28;20189;-83
2023/03/28 11:39:07;;;;;;;5.80;1.38;;;;;15.60;102276.00;;;;5008487;28;20201;-82
2023/03/28 11:41:38;;;;;;;3.20;1.13;;;;;15.70;102280.00;;;;5009735;28;20208;-83
2023/03/28 11:44:15;;;;;;;2.30;0.90;;;;;15.70;102276.00;;;;5009755;28;20227;-84
2023/03/28 11:46:46;;;;;;;3.70;1.27;;;;;15.80;102270.00;;;;5006931;28;20585;-83
2023/03/28 11:49:20;;;;;;;2.95;1.10;;;;;15.90;102270.00;;;;4996496;28;20687;-83
2023/03/28 11:51:55;;;;;;;3.83;1.08;;;;;15.90;102256.00;;;;5008078;28;20193;-83
2023/03/28 11:54:30;;;;;;;2.78;0.95;;;;;16.00;102260.00;;;;5007819;28;20208;-82
2023/03/28 11:57:02;;;;;;;5.63;1.98;;;;;16.10;102253.00;;;;5009584;28;20192;-82
2023/03/28 11:59:39;;;;;;;4.45;1.13;;;;;16.10;102241.00;;;;5006939;28;20240;-82
2023/03/28 12:02:14;;;;;;;3.42;1.13;;;;;16.20;102239.00;;;;5008349;28;20758;-82
2023/03/28 12:04:48;;;;;;;5.22;1.02;;;;;16.30;102238.00;;;;5007247;28;20232;-83
2023/03/28 12:07:21;;;;;;;2.42;1.05;;;;;16.40;102238.00;;;;4990357;28;20260;-83
2023/03/28 12:09:58;;;;;;;1.70;0.82;;;;;16.40;102226.00;;;;5004966;28;20576;-83
2023/03/28 12:12:29;;;;;;;3.90;0.98;;;;;16.40;102228.00;;;;5009440;28;20192;-83
2023/03/28 12:15:05;;;;;;;1.90;0.90;;;;;16.40;102225.00;;;;5009058;28;20723;-84
2023/03/28 12:17:35;;;;;;;2.85;1.13;;;;;16.40;102209.00;;;;5009507;28;20658;-83
2023/03/28 12:20:06;;;;;;;1.90;1.00;;;;;16.50;102207.00;;;;5007874;28;20212;-81
2023/03/28 12:22:40;;;;;;;2.40;1.10;;;;;16.50;102211.00;;;;5001074;28;20197;-82
2023/03/28 12:25:14;;;;;;;4.10;0.93;;;;;16.50;102212.00;;;;5008680;28;20220;-84
2023/03/28 12:27:52;;;;;;;2.78;0.90;;;;;16.50;102205.00;;;;5008630;28;21032;-83
2023/03/28 12:30:28;;;;;;;2.15;1.15;;;;;16.50;102205.00;;;;5007670;28;20570;-82
2023/03/28 12:33:05;;;;;;;1.65;1.10;;;;;16.50;102206.00;;;;5008152;28;20659;-82
2023/03/28 12:35:40;;;;;;;3.00;1.00;;;;;16.50;102208.00;;;;5003016;28;20224;-82